createdAt,value
2022-09-17T00:01:26.447Z,1.73
2022-09-17T00:03:56.293Z,1.83
2022-09-17T00:06:26.696Z,1.75
2022-09-17T00:08:55.716Z,1.83
2022-09-17T00:11:25.898Z,1.80
2022-09-17T00:13:55.187Z,1.73
2022-09-17T00:16:26.814Z,2.05
2022-09-17T00:18:55.667Z,2.08
2022-09-17T00:21:24.662Z,1.85
2022-09-17T00:23:56.984Z,2.10
2022-09-17T00:26:25.374Z,1.70
2022-09-17T00:28:54.668Z,1.90
2022-09-17T00:31:23.651Z,2.13
2022-09-17T00:33:52.442Z,2.00
2022-09-17T00:36:21.320Z,1.70
2022-09-17T00:38:51.410Z,1.90
2022-09-17T00:41:21.550Z,1.98
2022-09-17T00:43:51.259Z,1.70
2022-09-17T00:46:32.606Z,1.50
2022-09-17T00:49:03.692Z,1.63
2022-09-17T00:51:35.857Z,1.60
2022-09-17T00:54:06.693Z,1.80
2022-09-17T00:56:38.338Z,1.67
2022-09-17T00:59:07.306Z,1.60
2022-09-17T01:01:36.153Z,1.58
2022-09-17T01:04:04.690Z,1.60
2022-09-17T01:06:40.411Z,1.83
2022-09-17T01:09:25.271Z,2.33
2022-09-17T01:12:11.025Z,1.70
2022-09-17T01:14:57.922Z,1.80
2022-09-17T01:17:32.405Z,1.83
2022-09-17T01:20:33.059Z,1.70
2022-09-17T01:23:22.488Z,2.08
2022-09-17T01:26:04.153Z,1.75
2022-09-17T01:28:43.394Z,1.67
2022-09-17T01:31:36.042Z,1.48
2022-09-17T01:34:14.495Z,1.95
2022-09-17T01:37:01.202Z,1.52
2022-09-17T01:39:38.364Z,1.90
2022-09-17T01:42:14.712Z,1.80
2022-09-17T01:44:52.055Z,1.50
2022-09-17T01:47:24.474Z,1.92
2022-09-17T01:49:56.794Z,1.70
2022-09-17T01:52:27.225Z,1.83
2022-09-17T01:55:02.328Z,1.40
2022-09-17T01:57:34.769Z,1.40
2022-09-17T02:00:06.402Z,1.40
2022-09-17T02:02:47.684Z,1.42
2022-09-17T02:05:19.848Z,1.50
2022-09-17T02:07:54.080Z,1.38
2022-09-17T02:10:27.044Z,1.90
2022-09-17T02:12:58.991Z,1.55
2022-09-17T02:15:32.344Z,1.50
2022-09-17T02:18:07.683Z,1.63
2022-09-17T02:20:41.877Z,1.20
2022-09-17T02:23:15.579Z,1.60
2022-09-17T02:25:48.468Z,1.63
2022-09-17T02:28:22.926Z,1.40
2022-09-17T02:30:50.998Z,1.60
2022-09-17T02:33:21.480Z,1.30
2022-09-17T02:35:49.451Z,1.27
2022-09-17T02:38:23.430Z,1.40
2022-09-17T02:41:00.145Z,1.40
2022-09-17T02:43:37.848Z,1.30
2022-09-17T02:46:23.322Z,1.52
2022-09-17T02:49:21.529Z,1.20
2022-09-17T02:51:58.183Z,1.20
2022-09-17T02:54:30.812Z,1.13
2022-09-17T02:57:09.449Z,1.10
2022-09-17T02:59:45.002Z,1.30
2022-09-17T03:02:20.622Z,1.00
2022-09-17T03:04:52.373Z,1.27
2022-09-17T03:07:23.045Z,1.10
2022-09-17T03:09:51.139Z,1.38
2022-09-17T03:12:19.254Z,1.38
2022-09-17T03:14:47.180Z,1.20
2022-09-17T03:17:15.165Z,1.40
2022-09-17T03:19:43.093Z,1.48
2022-09-17T03:22:12.590Z,1.40
2022-09-17T03:24:40.724Z,1.25
2022-09-17T03:27:08.667Z,1.30
2022-09-17T03:29:36.605Z,1.50
2022-09-17T03:32:05.464Z,1.00
2022-09-17T03:34:33.368Z,1.10
2022-09-17T03:37:01.316Z,1.10
2022-09-17T03:39:31.374Z,1.08
2022-09-17T03:41:59.307Z,1.27
2022-09-17T03:44:27.227Z,1.10
2022-09-17T03:46:55.241Z,1.10
2022-09-17T03:49:24.003Z,1.20
2022-09-17T03:51:52.264Z,1.30
2022-09-17T03:54:20.164Z,1.10
2022-09-17T03:56:49.507Z,0.93
2022-09-17T03:59:17.674Z,0.85
2022-09-17T04:01:45.852Z,1.20
2022-09-17T04:04:13.830Z,1.05
2022-09-17T04:06:41.803Z,1.30
2022-09-17T04:09:09.739Z,0.90
2022-09-17T04:11:37.669Z,0.90
2022-09-17T04:14:06.975Z,0.95
2022-09-17T04:16:35.186Z,0.70
2022-09-17T04:19:03.663Z,0.73
2022-09-17T04:21:31.590Z,0.73
2022-09-17T04:24:19.244Z,0.93
2022-09-17T04:26:47.242Z,0.60
2022-09-17T04:29:16.576Z,0.82
2022-09-17T04:31:44.518Z,0.77
2022-09-17T04:34:12.479Z,0.57
2022-09-17T04:36:40.483Z,0.88
2022-09-17T04:39:08.553Z,0.85
2022-09-17T04:41:36.455Z,0.80
2022-09-17T04:44:04.592Z,0.93
2022-09-17T04:46:33.929Z,0.60
2022-09-17T04:49:02.274Z,0.88
2022-09-17T04:51:30.239Z,0.88
2022-09-17T04:54:00.891Z,0.70
2022-09-17T04:56:28.858Z,1.00
2022-09-17T04:58:56.846Z,0.60
2022-09-17T05:01:25.043Z,0.90
2022-09-17T05:03:54.436Z,0.90
2022-09-17T05:06:22.417Z,0.95
2022-09-17T05:08:50.752Z,0.90
2022-09-17T05:11:18.919Z,1.13
2022-09-17T05:13:46.928Z,0.70
2022-09-17T05:16:14.936Z,0.80
2022-09-17T05:18:42.951Z,0.82
2022-09-17T05:21:12.313Z,0.90
2022-09-17T05:23:40.292Z,0.82
2022-09-17T05:26:08.262Z,0.60
2022-09-17T05:28:36.609Z,0.47
2022-09-17T05:31:05.088Z,0.70
2022-09-17T05:33:33.275Z,0.65
2022-09-17T05:36:01.279Z,0.60
2022-09-17T05:38:30.671Z,0.63
2022-09-17T05:40:58.572Z,0.80
2022-09-17T05:43:26.537Z,0.80
2022-09-17T05:45:54.935Z,0.77
2022-09-17T05:48:22.995Z,0.73
2022-09-17T05:50:50.955Z,0.63
2022-09-17T05:53:19.406Z,0.60
2022-09-17T05:55:48.751Z,0.68
2022-09-17T05:58:18.450Z,0.60
2022-09-17T06:00:49.015Z,0.60
2022-09-17T06:03:19.785Z,0.60
2022-09-17T06:05:55.347Z,0.80
2022-09-17T06:08:23.900Z,0.70
2022-09-17T06:10:53.321Z,0.40
2022-09-17T06:13:22.269Z,0.68
2022-09-17T06:15:54.569Z,0.63
2022-09-17T06:18:22.707Z,0.52
2022-09-17T06:20:55.368Z,0.60
2022-09-17T06:23:24.169Z,0.45
2022-09-17T06:25:55.922Z,0.88
2022-09-17T06:28:24.114Z,0.70
2022-09-17T06:30:54.432Z,0.60
2022-09-17T06:33:22.789Z,0.65
2022-09-17T06:35:57.052Z,0.60
2022-09-17T06:38:25.031Z,0.57
2022-09-17T06:40:54.991Z,0.60
2022-09-17T06:43:24.098Z,0.50
2022-09-17T06:45:55.372Z,0.70
2022-09-17T06:48:24.187Z,0.70
2022-09-17T06:50:54.361Z,0.57
2022-09-17T06:53:22.853Z,0.60
2022-09-17T06:55:51.391Z,0.50
2022-09-17T06:58:20.724Z,0.63
2022-09-17T07:00:48.754Z,0.60
2022-09-17T07:03:21.170Z,0.68
2022-09-17T07:05:51.016Z,0.40
2022-09-17T07:08:18.993Z,0.57
2022-09-17T07:10:46.911Z,0.68
2022-09-17T07:13:14.850Z,0.70
2022-09-17T07:15:44.263Z,0.40
2022-09-17T07:18:12.951Z,0.60
2022-09-17T07:20:40.864Z,0.65
2022-09-17T07:23:08.779Z,0.60
2022-09-17T07:25:36.698Z,0.47
2022-09-17T07:28:04.919Z,0.88
2022-09-17T07:30:32.897Z,0.55
2022-09-17T07:33:03.727Z,0.40
2022-09-17T07:35:31.647Z,0.60
2022-09-17T07:37:59.559Z,0.40
2022-09-17T07:40:27.845Z,0.55
2022-09-17T07:42:58.701Z,0.57
2022-09-17T07:45:26.607Z,0.70
2022-09-17T07:47:54.550Z,0.63
2022-09-17T07:50:23.909Z,0.40
2022-09-17T07:52:51.848Z,0.40
2022-09-17T07:55:20.196Z,0.50
2022-09-17T07:57:52.855Z,0.85
2022-09-17T08:00:21.100Z,0.40
2022-09-17T08:02:54.459Z,0.80
2022-09-17T08:05:24.593Z,0.50
2022-09-17T08:07:52.999Z,0.68
2022-09-17T08:10:22.005Z,0.50
2022-09-17T08:12:50.129Z,0.55
2022-09-17T08:15:19.400Z,0.50
2022-09-17T08:17:47.740Z,0.60
2022-09-17T08:20:16.730Z,0.70
2022-09-17T08:22:50.017Z,0.65
2022-09-17T08:25:18.508Z,0.52
2022-09-17T08:27:46.609Z,0.63
2022-09-17T08:30:14.566Z,0.45
2022-09-17T08:32:42.502Z,0.70
2022-09-17T08:35:11.882Z,0.65
2022-09-17T08:37:39.806Z,0.50
2022-09-17T08:40:14.707Z,0.52
2022-09-17T08:42:54.175Z,0.50
2022-09-17T08:45:22.624Z,0.63
2022-09-17T08:47:51.150Z,0.45
2022-09-17T08:50:28.825Z,0.50
2022-09-17T08:53:17.138Z,0.60
2022-09-17T08:55:50.998Z,0.50
2022-09-17T08:58:33.973Z,0.70
2022-09-17T09:01:13.162Z,0.50
2022-09-17T09:03:55.329Z,0.60
2022-09-17T09:06:28.424Z,0.60
2022-09-17T09:09:01.544Z,0.50
2022-09-17T09:11:32.351Z,0.40
2022-09-17T09:14:06.794Z,0.98
2022-09-17T09:16:39.496Z,0.50
2022-09-17T09:19:22.079Z,0.52
2022-09-17T09:22:03.501Z,0.50
2022-09-17T09:24:40.857Z,0.60
2022-09-17T09:27:18.962Z,0.50
2022-09-17T09:30:02.078Z,0.55
2022-09-17T09:32:44.958Z,0.60
2022-09-17T09:35:19.944Z,0.80
2022-09-17T09:37:58.772Z,0.60
2022-09-17T09:40:34.393Z,0.70
2022-09-17T09:43:13.053Z,0.70
2022-09-17T09:45:57.094Z,0.60
2022-09-17T09:48:35.173Z,0.60
2022-09-17T09:51:15.929Z,0.50
2022-09-17T09:54:01.987Z,0.55
2022-09-17T09:56:43.978Z,0.40
2022-09-17T09:59:14.701Z,0.60
2022-09-17T10:01:45.204Z,0.52
2022-09-17T10:04:21.754Z,0.60
2022-09-17T10:06:52.793Z,0.50
2022-09-17T10:09:22.640Z,0.30
2022-09-17T10:12:06.378Z,0.40
2022-09-17T10:14:37.023Z,0.52
2022-09-17T10:17:20.985Z,0.40
2022-09-17T10:20:17.257Z,0.45
2022-09-17T10:22:48.798Z,0.50
2022-09-17T10:25:29.692Z,0.45
2022-09-17T10:27:59.638Z,0.40
2022-09-17T10:30:28.205Z,0.50
2022-09-17T10:33:17.492Z,0.30
2022-09-17T10:35:58.644Z,0.60
2022-09-17T10:38:35.521Z,0.50
2022-09-17T10:41:13.464Z,0.50
2022-09-17T10:43:42.527Z,0.35
2022-09-17T10:46:15.124Z,0.50
2022-09-17T10:48:45.920Z,0.40
2022-09-17T10:51:25.293Z,0.40
2022-09-17T10:54:26.405Z,0.40
2022-09-17T10:56:58.334Z,0.30
2022-09-17T10:59:53.856Z,0.38
2022-09-17T11:02:44.674Z,0.60
2022-09-17T11:05:35.498Z,0.30
2022-09-17T11:08:12.945Z,0.25
2022-09-17T11:10:50.971Z,0.40
2022-09-17T11:13:29.158Z,0.50
2022-09-17T11:16:21.021Z,0.30
2022-09-17T11:18:57.078Z,0.40
2022-09-17T11:21:45.469Z,0.38
2022-09-17T11:24:49.990Z,0.30
2022-09-17T11:27:35.378Z,0.40
2022-09-17T11:30:09.583Z,0.35
2022-09-17T11:32:53.937Z,0.30
2022-09-17T11:35:25.801Z,0.20
2022-09-17T11:38:00.106Z,0.20
2022-09-17T11:40:36.872Z,0.30
2022-09-17T11:43:15.415Z,0.30
2022-09-17T11:45:57.239Z,0.43
2022-09-17T11:48:32.950Z,0.30
2022-09-17T11:51:07.473Z,0.50
2022-09-17T11:53:40.816Z,0.40
2022-09-17T11:56:18.905Z,0.38
2022-09-17T11:58:51.632Z,0.47
2022-09-17T12:01:29.035Z,0.40
2022-09-17T12:04:00.497Z,0.50
2022-09-17T12:06:37.573Z,0.50
2022-09-17T12:09:13.747Z,0.50
2022-09-17T12:11:49.538Z,0.13
2022-09-17T12:14:23.325Z,0.40
2022-09-17T12:16:56.641Z,0.40
2022-09-17T12:19:31.997Z,0.30
2022-09-17T12:22:07.137Z,0.30
2022-09-17T12:24:35.186Z,0.30
2022-09-17T12:27:14.484Z,0.35
2022-09-17T12:30:16.457Z,0.30
2022-09-17T12:32:58.392Z,0.30
2022-09-17T12:39:15.806Z,0.22
2022-09-17T12:41:53.627Z,0.50
2022-09-17T12:44:46.722Z,0.50
2022-09-17T12:47:45.529Z,0.38
2022-09-17T12:50:22.945Z,0.20
2022-09-17T12:53:04.075Z,0.30
2022-09-17T12:55:41.278Z,0.28
2022-09-17T12:58:22.237Z,0.45
2022-09-17T13:00:56.683Z,0.40
2022-09-17T13:03:29.709Z,0.40
2022-09-17T13:06:26.133Z,0.30
2022-09-17T13:09:13.375Z,0.50
2022-09-17T13:12:08.108Z,0.43
2022-09-17T13:14:57.828Z,0.40
2022-09-17T13:17:35.963Z,0.32
2022-09-17T13:20:15.873Z,0.30
2022-09-17T13:22:47.768Z,0.22
2022-09-17T13:25:18.840Z,0.40
2022-09-17T13:27:47.850Z,0.40
2022-09-17T13:30:17.259Z,0.40
2022-09-17T13:32:55.577Z,0.55
2022-09-17T13:35:52.269Z,0.40
2022-09-17T13:38:23.880Z,0.30
2022-09-17T13:40:53.265Z,0.20
2022-09-17T13:43:27.130Z,0.25
2022-09-17T13:46:15.545Z,0.35
2022-09-17T13:48:55.708Z,0.30
2022-09-17T13:52:00.224Z,0.30
2022-09-17T13:54:38.821Z,0.30
2022-09-17T13:57:16.790Z,0.40
2022-09-17T13:59:56.789Z,0.40
2022-09-17T14:02:39.673Z,0.50
2022-09-17T14:05:35.661Z,0.38
2022-09-17T14:08:31.216Z,0.30
2022-09-17T14:11:01.838Z,0.30
2022-09-17T14:13:45.413Z,0.20
2022-09-17T14:16:47.414Z,0.40
2022-09-17T14:19:30.602Z,0.63
2022-09-17T14:22:03.378Z,0.40
2022-09-17T14:24:37.518Z,0.30
2022-09-17T14:27:43.620Z,0.40
2022-09-17T14:30:19.478Z,0.60
2022-09-17T14:32:59.203Z,0.28
2022-09-17T14:35:32.656Z,0.22
2022-09-17T14:38:09.060Z,0.50
2022-09-17T14:40:42.078Z,0.40
2022-09-17T14:43:19.745Z,0.43
2022-09-17T14:45:51.415Z,0.25
2022-09-17T14:48:30.839Z,0.30
2022-09-17T14:51:29.573Z,0.28
2022-09-17T14:54:17.523Z,0.30
2022-09-17T14:56:52.310Z,0.40
2022-09-17T14:59:30.457Z,0.40
2022-09-17T15:01:58.621Z,0.32
2022-09-17T15:04:28.096Z,0.40
2022-09-17T15:07:08.234Z,0.38
2022-09-17T15:09:37.683Z,0.50
2022-09-17T15:12:07.721Z,0.40
2022-09-17T15:14:39.840Z,0.20
2022-09-17T15:17:13.483Z,0.40
2022-09-17T15:19:44.850Z,0.30
2022-09-17T15:22:16.840Z,0.30
2022-09-17T15:24:53.078Z,0.40
2022-09-17T15:27:25.507Z,0.47
2022-09-17T15:29:57.987Z,0.43
2022-09-17T15:32:26.382Z,0.40
2022-09-17T15:35:23.546Z,0.50
2022-09-17T15:38:18.877Z,0.30
2022-09-17T15:40:42.935Z,0.30
2022-09-17T15:43:18.632Z,0.30
2022-09-17T15:45:46.575Z,0.50
2022-09-17T15:48:34.342Z,0.38
2022-09-17T15:51:03.712Z,0.30
2022-09-17T15:53:32.758Z,0.60
2022-09-17T15:56:06.880Z,0.30
2022-09-17T15:58:39.599Z,0.40
2022-09-17T16:01:53.092Z,0.50
2022-09-17T16:04:24.407Z,0.50
2022-09-17T16:07:11.345Z,0.52
2022-09-17T16:09:42.548Z,0.50
2022-09-17T16:12:17.044Z,0.50
2022-09-17T16:14:49.958Z,0.75
2022-09-17T16:17:33.120Z,0.50
2022-09-17T16:20:06.114Z,0.50
2022-09-17T16:22:34.885Z,0.30
2022-09-17T16:25:03.011Z,0.38
2022-09-17T16:27:36.790Z,0.50
2022-09-17T16:30:09.370Z,0.40
2022-09-17T16:32:37.358Z,0.60
2022-09-17T16:35:06.270Z,0.40
2022-09-17T16:37:34.212Z,0.50
2022-09-17T16:40:02.788Z,0.45
2022-09-17T16:42:33.715Z,0.60
2022-09-17T16:45:03.602Z,0.50
2022-09-17T16:47:37.132Z,0.40
2022-09-17T16:50:07.267Z,0.35
2022-09-17T16:52:35.429Z,0.43
2022-09-17T16:55:04.989Z,0.50
2022-09-17T16:57:34.824Z,0.40
2022-09-17T17:00:03.768Z,0.55
2022-09-17T17:02:31.784Z,0.50
2022-09-17T17:04:59.762Z,0.40
2022-09-17T17:07:27.762Z,0.43
2022-09-17T17:09:55.655Z,0.60
2022-09-17T17:12:23.613Z,0.50
2022-09-17T17:14:53.646Z,0.75
2022-09-17T17:17:22.362Z,0.50
2022-09-17T17:19:50.296Z,0.45
2022-09-17T17:22:18.222Z,0.43
2022-09-17T17:24:46.177Z,0.50
2022-09-17T17:27:14.576Z,0.40
2022-09-17T17:29:42.642Z,0.50
2022-09-17T17:32:11.968Z,0.60
2022-09-17T17:34:39.899Z,0.60
2022-09-17T17:37:07.853Z,0.50
2022-09-17T17:39:35.782Z,0.73
2022-09-17T17:42:03.743Z,0.52
2022-09-17T17:44:31.668Z,0.60
2022-09-17T17:46:59.698Z,0.77
2022-09-17T17:49:29.039Z,0.70
2022-09-17T17:51:56.957Z,0.70
2022-09-17T17:54:25.274Z,0.40
2022-09-17T17:56:53.197Z,0.90
2022-09-17T17:59:21.166Z,0.70
2022-09-17T18:01:49.154Z,0.45
2022-09-17T18:04:17.169Z,0.52
2022-09-17T18:06:48.150Z,0.80
2022-09-17T18:09:16.226Z,0.70
2022-09-17T18:11:44.226Z,0.60
2022-09-17T18:14:13.590Z,0.70
2022-09-17T18:16:41.821Z,0.70
2022-09-17T18:19:11.264Z,0.80
2022-09-17T18:21:39.272Z,0.60
2022-09-17T18:24:08.587Z,0.55
2022-09-17T18:26:36.546Z,0.73
2022-09-17T18:29:07.910Z,0.88
2022-09-17T18:31:37.903Z,0.50
2022-09-17T18:34:07.940Z,0.60
2022-09-17T18:36:37.727Z,0.82
2022-09-17T18:39:44.531Z,0.73
2022-09-17T18:41:56.657Z,0.98
2022-09-17T18:44:25.181Z,0.60
2022-09-17T18:46:53.146Z,0.60
2022-09-17T18:49:21.933Z,0.55
2022-09-17T18:51:49.906Z,0.98
2022-09-17T18:54:17.936Z,0.77
2022-09-17T18:56:45.879Z,0.70
2022-09-17T18:59:15.158Z,0.30
2022-09-17T19:01:43.385Z,0.80
2022-09-17T19:04:11.481Z,0.57
2022-09-17T19:06:39.531Z,0.60
2022-09-17T19:09:07.479Z,0.68
2022-09-17T19:11:36.567Z,0.52
2022-09-17T19:14:04.935Z,0.50
2022-09-17T19:16:34.337Z,0.70
2022-09-17T19:19:02.359Z,0.70
2022-09-17T19:21:30.347Z,0.82
2022-09-17T19:23:58.308Z,0.60
2022-09-17T19:26:27.918Z,0.50
2022-09-17T19:28:58.695Z,0.70
2022-09-17T19:31:27.876Z,0.77
2022-09-17T19:33:58.509Z,0.52
2022-09-17T19:36:26.728Z,0.60
2022-09-17T19:38:55.341Z,0.75
2022-09-17T19:41:24.226Z,0.70
2022-09-17T19:43:52.976Z,0.80
2022-09-17T19:46:22.644Z,0.50
2022-09-17T19:48:54.168Z,0.60
2022-09-17T19:51:24.982Z,0.60
2022-09-17T19:53:53.827Z,0.55
2022-09-17T19:56:23.585Z,0.77
2022-09-17T19:58:52.292Z,0.50
2022-09-17T20:01:20.984Z,0.82
2022-09-17T20:03:53.210Z,0.45
2022-09-17T20:06:24.050Z,0.60
2022-09-17T20:08:53.922Z,0.60
2022-09-17T20:11:24.307Z,0.60
2022-09-17T20:13:58.051Z,0.82
2022-09-17T20:16:26.709Z,0.75
2022-09-17T20:18:54.877Z,0.90
2022-09-17T20:21:27.844Z,0.50
2022-09-17T20:23:56.416Z,0.60
2022-09-17T20:26:24.997Z,0.80
2022-09-17T20:28:53.539Z,0.63
2022-09-17T20:31:23.889Z,0.50
2022-09-17T20:33:54.405Z,0.68
2022-09-17T20:36:26.226Z,0.75
2022-09-17T20:39:11.467Z,0.52
2022-09-17T20:41:42.386Z,0.70
2022-09-17T20:44:10.366Z,0.80
2022-09-17T20:46:38.289Z,0.70
2022-09-17T20:49:06.283Z,0.70
2022-09-17T20:51:36.110Z,0.80
2022-09-17T20:54:04.432Z,0.65
2022-09-17T20:56:34.777Z,0.80
2022-09-17T20:59:09.433Z,0.55
2022-09-17T21:01:38.013Z,0.50
2022-09-17T21:04:08.682Z,0.90
2022-09-17T21:06:41.077Z,0.70
2022-09-17T21:09:10.366Z,0.63
2022-09-17T21:11:38.719Z,0.70
2022-09-17T21:14:06.993Z,0.90
2022-09-17T21:16:34.948Z,0.90
2022-09-17T21:19:06.505Z,0.70
2022-09-17T21:21:35.228Z,0.70
2022-09-17T21:24:06.974Z,0.70
2022-09-17T21:26:35.709Z,0.60
2022-09-17T21:29:03.945Z,0.80
2022-09-17T21:31:36.869Z,1.13
2022-09-17T21:34:07.089Z,0.55
2022-09-17T21:36:37.195Z,0.95
2022-09-17T21:39:08.036Z,0.93
2022-09-17T21:41:41.389Z,0.80
2022-09-17T21:44:11.480Z,0.65
2022-09-17T21:46:39.618Z,0.80
2022-09-17T21:49:07.950Z,0.85
2022-09-17T21:51:37.813Z,0.50
2022-09-17T21:54:08.778Z,0.95
2022-09-17T21:56:37.387Z,0.85
2022-09-17T21:59:07.204Z,0.70
2022-09-17T22:01:39.951Z,0.63
2022-09-17T22:04:09.295Z,0.95
2022-09-17T22:06:38.171Z,0.60
2022-09-17T22:09:09.053Z,0.60
2022-09-17T22:11:38.393Z,0.70
2022-09-17T22:14:09.224Z,0.63
2022-09-17T22:16:39.058Z,0.60
2022-09-17T22:19:08.702Z,0.80
2022-09-17T22:21:38.773Z,0.55
2022-09-17T22:24:09.177Z,1.13
2022-09-17T22:26:40.494Z,0.65
2022-09-17T22:29:11.380Z,0.73
2022-09-17T22:31:39.638Z,0.65
2022-09-17T22:34:09.155Z,1.05
2022-09-17T22:36:37.851Z,0.57
2022-09-17T22:39:06.796Z,0.90
2022-09-17T22:41:37.782Z,0.75
2022-09-17T22:44:08.452Z,1.02
2022-09-17T22:46:39.413Z,0.80
2022-09-17T22:49:09.430Z,0.70
2022-09-17T22:51:37.870Z,0.60
2022-09-17T22:54:07.320Z,0.60
2022-09-17T22:56:37.202Z,0.75
2022-09-17T22:59:05.665Z,0.77
2022-09-17T23:01:36.297Z,0.77
2022-09-17T23:04:05.783Z,1.02
2022-09-17T23:06:35.131Z,0.80
2022-09-17T23:09:03.968Z,0.90
2022-09-17T23:11:33.907Z,0.90
2022-09-17T23:14:05.169Z,0.90
2022-09-17T23:16:35.508Z,0.60
2022-09-17T23:19:03.618Z,0.57
2022-09-17T23:21:31.536Z,0.98
2022-09-17T23:23:59.572Z,0.75
2022-09-17T23:26:28.344Z,1.08
2022-09-17T23:28:58.942Z,0.82
2022-09-17T23:31:31.152Z,0.70
2022-09-17T23:34:00.277Z,0.77
2022-09-17T23:36:30.144Z,0.90
2022-09-17T23:38:59.830Z,1.05
2022-09-17T23:41:30.141Z,1.02
2022-09-17T23:44:00.292Z,0.60
2022-09-17T23:46:31.572Z,0.77
2022-09-17T23:48:59.871Z,0.60
2022-09-17T23:51:30.732Z,0.90
2022-09-17T23:53:59.794Z,0.73
2022-09-17T23:56:29.424Z,0.80
2022-09-17T23:59:00.697Z,0.68
